createdAt,value
2023-06-17T00:01:20.630Z,101904.50
2023-06-17T00:03:27.202Z,101903.75
2023-06-17T00:05:33.452Z,101908.44
2023-06-17T00:07:40.721Z,101904.00
2023-06-17T00:09:45.958Z,101898.78
2023-06-17T00:11:52.849Z,101899.00
2023-06-17T00:13:59.612Z,101899.38
2023-06-17T00:16:07.719Z,101895.84
2023-06-17T00:18:12.859Z,101895.84
2023-06-17T00:20:18.473Z,101887.19
2023-06-17T00:22:30.277Z,101894.50
2023-06-17T00:24:35.688Z,101884.03
2023-06-17T00:26:40.668Z,101888.69
2023-06-17T00:28:45.724Z,101891.47
2023-06-17T00:30:51.755Z,101892.50
2023-06-17T00:33:02.202Z,101885.56
2023-06-17T00:35:08.782Z,101879.97
2023-06-17T00:37:14.012Z,101881.13
2023-06-17T00:39:19.218Z,101879.41
2023-06-17T00:41:28.426Z,101876.91
2023-06-17T00:43:33.294Z,101875.09
2023-06-17T00:45:40.759Z,101876.28
2023-06-17T00:47:47.797Z,101883.38
2023-06-17T00:50:00.077Z,101879.56
2023-06-17T00:52:31.172Z,101882.34
2023-06-17T00:54:34.996Z,101871.13
2023-06-17T00:56:41.743Z,101874.78
2023-06-17T00:58:49.851Z,101884.69
2023-06-17T01:00:55.164Z,101877.56
2023-06-17T01:03:00.497Z,101876.44
2023-06-17T01:05:12.822Z,101869.47
2023-06-17T01:07:36.973Z,101875.97
2023-06-17T01:09:46.778Z,101875.22
2023-06-17T01:11:59.605Z,101875.41
2023-06-17T01:14:07.029Z,101879.13
2023-06-17T01:16:12.914Z,101876.53
2023-06-17T01:18:21.537Z,101870.53
2023-06-17T01:20:30.189Z,101873.31
2023-06-17T01:22:36.943Z,101875.00
2023-06-17T01:24:46.651Z,101876.75
2023-06-17T01:26:59.722Z,101880.38
2023-06-17T01:29:04.496Z,101881.41
2023-06-17T01:31:14.077Z,101882.53
2023-06-17T01:33:22.099Z,101888.25
2023-06-17T01:35:30.279Z,101883.78
2023-06-17T01:37:40.050Z,101888.31
2023-06-17T01:39:50.613Z,101891.22
2023-06-17T01:41:59.481Z,101893.00
2023-06-17T01:44:06.296Z,101884.34
2023-06-17T01:46:13.510Z,101881.75
2023-06-17T01:48:21.809Z,101884.34
2023-06-17T01:50:27.680Z,101876.34
2023-06-17T01:52:33.186Z,101880.94
2023-06-17T01:54:38.278Z,101884.47
2023-06-17T01:56:45.975Z,101883.69
2023-06-17T01:58:52.898Z,101874.00
2023-06-17T02:01:01.380Z,101878.56
2023-06-17T02:03:06.736Z,101875.09
2023-06-17T02:05:12.966Z,101873.53
2023-06-17T02:07:19.088Z,101872.75
2023-06-17T02:09:24.705Z,101877.06
2023-06-17T02:11:29.871Z,101864.97
2023-06-17T02:13:37.552Z,101865.81
2023-06-17T02:15:44.263Z,101865.13
2023-06-17T02:17:51.522Z,101865.25
2023-06-17T02:20:00.359Z,101861.94
2023-06-17T02:22:06.626Z,101862.88
2023-06-17T02:24:12.297Z,101866.31
2023-06-17T02:26:17.780Z,101859.25
2023-06-17T02:28:22.896Z,101852.25
2023-06-17T02:30:31.988Z,101856.75
2023-06-17T02:32:37.225Z,101846.31
2023-06-17T02:34:43.914Z,101851.59
2023-06-17T02:36:48.937Z,101851.91
2023-06-17T02:38:59.178Z,101840.75
2023-06-17T02:41:04.269Z,101839.91
2023-06-17T02:43:09.504Z,101843.22
2023-06-17T02:45:15.163Z,101848.41
2023-06-17T02:47:24.907Z,101844.91
2023-06-17T02:49:30.041Z,101837.25
2023-06-17T02:51:35.487Z,101843.56
2023-06-17T02:53:40.442Z,101850.75
2023-06-17T02:55:48.258Z,101840.94
2023-06-17T02:57:53.174Z,101837.19
2023-06-17T03:00:00.260Z,101841.88
2023-06-17T03:02:05.524Z,101847.31
2023-06-17T03:04:13.768Z,101845.66
2023-06-17T03:06:20.578Z,101839.47
2023-06-17T03:08:26.039Z,101835.75
2023-06-17T03:10:33.604Z,101844.75
2023-06-17T03:12:38.811Z,101838.78
2023-06-17T03:14:44.124Z,101838.00
2023-06-17T03:16:49.272Z,101846.91
2023-06-17T03:18:59.345Z,101839.06
2023-06-17T03:21:07.036Z,101835.31
2023-06-17T03:23:12.483Z,101836.13
2023-06-17T03:25:17.943Z,101833.28
2023-06-17T03:27:23.236Z,101832.50
2023-06-17T03:29:35.843Z,101832.59
2023-06-17T03:31:40.887Z,101837.16
2023-06-17T03:33:45.813Z,101836.28
2023-06-17T03:35:52.091Z,101833.81
2023-06-17T03:37:59.783Z,101828.41
2023-06-17T03:40:05.125Z,101826.69
2023-06-17T03:42:11.450Z,101830.94
2023-06-17T03:44:16.706Z,101831.63
2023-06-17T03:46:22.913Z,101839.47
2023-06-17T03:48:29.256Z,101838.78
2023-06-17T03:50:35.108Z,101828.78
2023-06-17T03:52:40.445Z,101834.34
2023-06-17T03:54:48.174Z,101830.03
2023-06-17T03:56:53.262Z,101830.19
2023-06-17T03:58:59.420Z,101830.16
2023-06-17T04:01:04.440Z,101832.78
2023-06-17T04:03:09.468Z,101831.88
2023-06-17T04:05:14.709Z,101832.69
2023-06-17T04:07:20.042Z,101838.78
2023-06-17T04:09:25.028Z,101837.84
2023-06-17T04:11:34.191Z,101838.56
2023-06-17T04:13:39.298Z,101840.25
2023-06-17T04:15:44.159Z,101848.00
2023-06-17T04:17:49.222Z,101844.38
2023-06-17T04:19:59.454Z,101835.44
2023-06-17T04:22:04.444Z,101839.75
2023-06-17T04:24:09.570Z,101838.69
2023-06-17T04:26:16.809Z,101849.91
2023-06-17T04:28:24.712Z,101840.69
2023-06-17T04:30:29.968Z,101841.16
2023-06-17T04:32:36.751Z,101839.84
2023-06-17T04:34:44.210Z,101832.44
2023-06-17T04:36:53.233Z,101837.47
2023-06-17T04:38:58.280Z,101833.56
2023-06-17T04:41:04.104Z,101840.13
2023-06-17T04:43:09.049Z,101837.69
2023-06-17T04:45:20.241Z,101829.91
2023-06-17T04:47:25.947Z,101829.06
2023-06-17T04:49:42.939Z,101831.59
2023-06-17T04:51:51.275Z,101836.13
2023-06-17T04:53:58.473Z,101829.94
2023-06-17T04:56:05.954Z,101836.03
2023-06-17T04:58:11.271Z,101830.44
2023-06-17T05:00:22.319Z,101823.97
2023-06-17T05:02:28.592Z,101833.50
2023-06-17T05:04:33.464Z,101831.41
2023-06-17T05:06:39.262Z,101830.84
2023-06-17T05:08:44.259Z,101833.16
2023-06-17T05:10:49.370Z,101832.59
2023-06-17T05:12:54.869Z,101826.03
2023-06-17T05:14:59.907Z,101830.13
2023-06-17T05:17:08.835Z,101834.38
2023-06-17T05:19:13.796Z,101834.69
2023-06-17T05:21:20.532Z,101831.41
2023-06-17T05:23:27.365Z,101827.34
2023-06-17T05:25:35.354Z,101830.06
2023-06-17T05:27:40.604Z,101823.00
2023-06-17T05:29:45.472Z,101827.13
2023-06-17T05:31:50.426Z,101825.88
2023-06-17T05:33:59.386Z,101826.84
2023-06-17T05:36:04.411Z,101829.59
2023-06-17T05:38:09.334Z,101818.88
2023-06-17T05:40:14.790Z,101817.28
2023-06-17T05:42:20.170Z,101823.59
2023-06-17T05:44:25.457Z,101817.69
2023-06-17T05:46:31.270Z,101810.84
2023-06-17T05:48:36.448Z,101815.75
2023-06-17T05:50:44.238Z,101814.06
2023-06-17T05:52:49.319Z,101824.78
2023-06-17T05:54:57.982Z,101809.13
2023-06-17T05:57:03.188Z,101815.31
2023-06-17T05:59:08.456Z,101814.97
2023-06-17T06:01:13.589Z,101818.16
2023-06-17T06:03:19.398Z,101815.84
2023-06-17T06:05:27.588Z,101817.38
2023-06-17T06:07:35.366Z,101819.66
2023-06-17T06:09:40.325Z,101820.00
2023-06-17T06:11:45.474Z,101820.53
2023-06-17T06:13:50.468Z,101816.47
2023-06-17T06:15:55.882Z,101813.53
2023-06-17T06:18:03.108Z,101805.47
2023-06-17T06:20:09.256Z,101813.03
2023-06-17T06:22:14.609Z,101811.06
2023-06-17T06:24:22.397Z,101807.91
2023-06-17T06:26:31.450Z,101815.50
2023-06-17T06:28:36.906Z,101810.97
2023-06-17T06:30:42.324Z,101812.88
2023-06-17T06:32:47.597Z,101809.75
2023-06-17T06:34:52.610Z,101808.53
2023-06-17T06:36:59.918Z,101805.97
2023-06-17T06:39:05.111Z,101802.06
2023-06-17T06:41:14.619Z,101805.56
2023-06-17T06:43:20.142Z,101805.03
2023-06-17T06:45:27.167Z,101803.72
2023-06-17T06:47:33.981Z,101803.91
2023-06-17T06:49:38.963Z,101801.50
2023-06-17T06:51:44.052Z,101795.63
2023-06-17T06:53:50.281Z,101792.59
2023-06-17T06:55:55.433Z,101793.16
2023-06-17T06:58:03.039Z,101798.94
2023-06-17T07:00:10.834Z,101798.38
2023-06-17T07:02:15.950Z,101801.84
2023-06-17T07:04:22.596Z,101794.75
2023-06-17T07:06:28.391Z,101797.69
2023-06-17T07:08:33.880Z,101797.69
2023-06-17T07:10:42.077Z,101804.97
2023-06-17T07:12:47.679Z,101791.66
2023-06-17T07:14:55.285Z,101802.41
2023-06-17T07:17:00.967Z,101801.22
2023-06-17T07:19:06.295Z,101800.84
2023-06-17T07:21:11.953Z,101804.22
2023-06-17T07:23:17.392Z,101806.53
2023-06-17T07:25:22.642Z,101800.66
2023-06-17T07:27:31.673Z,101802.75
2023-06-17T07:29:38.929Z,101798.53
2023-06-17T07:31:49.446Z,101789.34
2023-06-17T07:34:00.143Z,101795.34
2023-06-17T07:36:05.709Z,101792.53
2023-06-17T07:38:11.017Z,101804.63
2023-06-17T07:40:17.205Z,101800.63
2023-06-17T07:42:23.173Z,101794.56
2023-06-17T07:44:29.094Z,101798.84
2023-06-17T07:46:35.378Z,101791.59
2023-06-17T07:48:43.045Z,101796.34
2023-06-17T07:50:48.763Z,101803.19
2023-06-17T07:53:01.546Z,101789.75
2023-06-17T07:55:08.391Z,101795.53
2023-06-17T07:57:13.749Z,101793.63
2023-06-17T07:59:22.888Z,101789.69
2023-06-17T08:01:29.688Z,101798.16
2023-06-17T08:03:34.878Z,101796.31
2023-06-17T08:05:42.676Z,101798.38
2023-06-17T08:07:49.381Z,101802.72
2023-06-17T08:09:57.989Z,101798.84
2023-06-17T08:12:03.463Z,101798.50
2023-06-17T08:14:08.836Z,101796.03
2023-06-17T08:16:13.905Z,101793.47
2023-06-17T08:18:19.476Z,101795.00
2023-06-17T08:20:28.603Z,101793.91
2023-06-17T08:22:37.380Z,101791.69
2023-06-17T08:24:42.789Z,101796.56
2023-06-17T08:26:48.190Z,101799.16
2023-06-17T08:28:53.251Z,101797.03
2023-06-17T08:31:00.685Z,101806.19
2023-06-17T08:33:10.520Z,101798.28
2023-06-17T08:35:19.032Z,101796.06
2023-06-17T08:37:24.594Z,101795.88
2023-06-17T08:39:32.546Z,101791.81
2023-06-17T08:41:41.349Z,101795.03
2023-06-17T08:43:49.258Z,101785.19
2023-06-17T08:45:57.694Z,101791.91
2023-06-17T08:48:03.626Z,101783.69
2023-06-17T08:50:10.474Z,101789.69
2023-06-17T08:52:21.384Z,101781.50
2023-06-17T08:54:29.667Z,101784.38
2023-06-17T08:56:40.050Z,101776.78
2023-06-17T08:58:45.035Z,101784.22
2023-06-17T09:00:50.719Z,101787.81
2023-06-17T09:02:59.668Z,101782.34
2023-06-17T09:05:05.218Z,101778.91
2023-06-17T09:07:11.109Z,101778.31
2023-06-17T09:09:18.119Z,101775.78
2023-06-17T09:11:26.381Z,101780.84
2023-06-17T09:13:35.490Z,101773.91
2023-06-17T09:15:43.970Z,101787.81
2023-06-17T09:17:51.067Z,101783.22
2023-06-17T09:19:59.878Z,101776.31
2023-06-17T09:22:11.047Z,101775.25
2023-06-17T09:24:16.529Z,101781.66
2023-06-17T09:26:22.303Z,101776.56
2023-06-17T09:28:31.628Z,101776.53
2023-06-17T09:30:45.248Z,101776.69
2023-06-17T09:32:52.019Z,101781.53
2023-06-17T09:34:57.504Z,101778.94
2023-06-17T09:37:04.838Z,101770.81
2023-06-17T09:39:10.979Z,101766.44
2023-06-17T09:41:25.095Z,101764.00
2023-06-17T09:43:31.987Z,101760.84
2023-06-17T09:45:39.777Z,101767.78
2023-06-17T09:47:44.688Z,101760.03
2023-06-17T09:49:51.240Z,101765.38
2023-06-17T09:51:58.628Z,101767.66
2023-06-17T09:54:04.063Z,101766.38
2023-06-17T09:56:16.579Z,101757.81
2023-06-17T09:58:22.266Z,101759.69
2023-06-17T10:00:29.562Z,101764.94
2023-06-17T10:02:37.629Z,101770.81
2023-06-17T10:04:43.295Z,101770.97
2023-06-17T10:06:54.372Z,101762.81
2023-06-17T10:09:00.419Z,101759.47
2023-06-17T10:11:06.104Z,101763.88
2023-06-17T10:13:13.353Z,101756.63
2023-06-17T10:15:23.404Z,101761.19
2023-06-17T10:17:30.188Z,101761.88
2023-06-17T10:19:41.298Z,101757.47
2023-06-17T10:21:50.930Z,101751.97
2023-06-17T10:24:00.205Z,101754.25
2023-06-17T10:26:09.370Z,101755.59
2023-06-17T10:28:14.742Z,101746.47
2023-06-17T10:30:34.470Z,101760.34
2023-06-17T10:32:41.887Z,101741.84
2023-06-17T10:35:14.601Z,101738.47
2023-06-17T10:37:34.141Z,101742.31
2023-06-17T10:39:39.637Z,101737.97
2023-06-17T10:42:00.919Z,101739.69
2023-06-17T10:44:31.716Z,101724.34
2023-06-17T10:46:36.949Z,101732.81
2023-06-17T10:48:41.995Z,101729.75
2023-06-17T10:50:55.745Z,101730.38
2023-06-17T10:53:04.145Z,101725.88
2023-06-17T10:55:09.584Z,101722.16
2023-06-17T10:57:15.327Z,101715.91
2023-06-17T10:59:31.382Z,101711.53
2023-06-17T11:01:37.470Z,101713.72
2023-06-17T11:03:43.182Z,101713.16
2023-06-17T11:05:51.912Z,101705.91
2023-06-17T11:07:59.801Z,101711.56
2023-06-17T11:10:05.051Z,101708.41
2023-06-17T11:12:16.750Z,101703.28
2023-06-17T11:14:22.682Z,101700.88
2023-06-17T11:16:29.708Z,101702.09
2023-06-17T11:18:35.207Z,101706.13
2023-06-17T11:20:40.458Z,101700.56
2023-06-17T11:22:48.456Z,101699.75
2023-06-17T11:24:53.810Z,101693.53
2023-06-17T11:26:59.116Z,101695.09
2023-06-17T11:29:05.594Z,101692.38
2023-06-17T11:31:11.182Z,101693.09
2023-06-17T11:33:16.718Z,101691.22
2023-06-17T11:35:22.036Z,101693.47
2023-06-17T11:37:28.519Z,101685.41
2023-06-17T11:39:38.145Z,101696.59
2023-06-17T11:41:44.810Z,101688.31
2023-06-17T11:43:50.457Z,101679.97
2023-06-17T11:46:01.566Z,101680.34
2023-06-17T11:48:08.915Z,101677.56
2023-06-17T11:50:15.489Z,101666.59
2023-06-17T11:52:23.381Z,101665.69
2023-06-17T11:54:30.576Z,101668.66
2023-06-17T11:56:38.414Z,101662.38
2023-06-17T11:58:46.181Z,101665.06
2023-06-17T12:00:51.912Z,101662.50
2023-06-17T12:03:00.425Z,101665.53
2023-06-17T12:05:05.875Z,101664.63
2023-06-17T12:07:11.965Z,101660.97
2023-06-17T12:09:20.534Z,101660.38
2023-06-17T12:11:29.878Z,101660.75
2023-06-17T12:13:52.364Z,101661.47
2023-06-17T12:15:58.353Z,101660.00
2023-06-17T12:18:15.289Z,101653.75
2023-06-17T12:20:27.161Z,101648.97
2023-06-17T12:22:34.173Z,101652.81
2023-06-17T12:24:39.827Z,101659.28
2023-06-17T12:26:45.862Z,101652.78
2023-06-17T12:28:54.043Z,101648.19
2023-06-17T12:31:00.459Z,101645.13
2023-06-17T12:33:05.632Z,101655.44
2023-06-17T12:35:13.130Z,101651.31
2023-06-17T12:37:23.748Z,101639.88
2023-06-17T12:39:30.931Z,101652.41
2023-06-17T12:41:36.910Z,101641.66
2023-06-17T12:43:43.133Z,101648.50
2023-06-17T12:45:50.901Z,101643.63
2023-06-17T12:48:00.427Z,101638.00
2023-06-17T12:50:05.429Z,101634.34
2023-06-17T12:52:11.425Z,101637.03
2023-06-17T12:54:16.607Z,101638.66
2023-06-17T12:56:22.020Z,101629.06
2023-06-17T12:58:27.456Z,101638.72
2023-06-17T13:00:33.794Z,101633.28
2023-06-17T13:02:41.583Z,101632.06
2023-06-17T13:04:47.240Z,101637.69
2023-06-17T13:06:52.276Z,101633.44
2023-06-17T13:08:57.531Z,101632.44
2023-06-17T13:11:05.489Z,101639.16
2023-06-17T13:13:10.617Z,101640.78
2023-06-17T13:15:15.985Z,101623.91
2023-06-17T13:17:21.858Z,101622.03
2023-06-17T13:19:30.920Z,101623.63
2023-06-17T13:21:36.302Z,101620.75
2023-06-17T13:23:41.510Z,101617.06
2023-06-17T13:25:48.952Z,101621.66
2023-06-17T13:27:54.883Z,101617.88
2023-06-17T13:30:01.165Z,101614.31
2023-06-17T13:32:06.911Z,101618.19
2023-06-17T13:34:12.015Z,101620.63
2023-06-17T13:36:20.307Z,101619.28
2023-06-17T13:38:28.739Z,101619.84
2023-06-17T13:40:34.676Z,101613.19
2023-06-17T13:42:39.941Z,101614.13
2023-06-17T13:44:45.744Z,101614.25
2023-06-17T13:46:54.144Z,101614.97
2023-06-17T13:49:01.300Z,101607.44
2023-06-17T13:51:07.041Z,101612.59
2023-06-17T13:53:15.104Z,101612.28
2023-06-17T13:55:23.091Z,101610.13
2023-06-17T13:57:31.692Z,101604.13
2023-06-17T13:59:37.908Z,101602.34
2023-06-17T14:01:43.307Z,101612.50
2023-06-17T14:03:49.173Z,101605.44
2023-06-17T14:05:57.017Z,101602.81
2023-06-17T14:08:14.512Z,101604.44
2023-06-17T14:10:20.717Z,101603.28
2023-06-17T14:12:26.164Z,101604.31
2023-06-17T14:14:31.603Z,101603.28
2023-06-17T14:16:37.072Z,101597.50
2023-06-17T14:18:44.676Z,101591.97
2023-06-17T14:20:49.712Z,101591.19
2023-06-17T14:22:59.467Z,101594.00
2023-06-17T14:25:08.640Z,101594.34
2023-06-17T14:27:38.696Z,101588.88
2023-06-17T14:29:44.030Z,101601.28
2023-06-17T14:31:49.257Z,101595.09
2023-06-17T14:33:54.670Z,101593.59
2023-06-17T14:35:59.747Z,101590.34
2023-06-17T14:38:06.413Z,101599.69
2023-06-17T14:40:16.437Z,101597.00
2023-06-17T14:42:21.809Z,101585.44
2023-06-17T14:44:26.897Z,101598.84
2023-06-17T14:46:35.323Z,101592.84
2023-06-17T14:48:40.963Z,101595.66
2023-06-17T14:50:46.466Z,101593.66
2023-06-17T14:52:51.967Z,101592.06
2023-06-17T14:54:57.094Z,101584.91
2023-06-17T14:57:06.544Z,101587.72
2023-06-17T14:59:12.095Z,101592.22
2023-06-17T15:01:17.879Z,101587.31
2023-06-17T15:03:23.310Z,101586.97
2023-06-17T15:05:36.503Z,101587.50
2023-06-17T15:07:41.626Z,101589.19
2023-06-17T15:09:47.171Z,101580.06
2023-06-17T15:11:52.725Z,101573.75
2023-06-17T15:14:00.736Z,101577.91
2023-06-17T15:16:06.667Z,101575.78
2023-06-17T15:18:11.914Z,101573.84
2023-06-17T15:20:19.300Z,101574.16
2023-06-17T15:22:26.183Z,101575.59
2023-06-17T15:24:32.419Z,101567.94
2023-06-17T15:26:37.645Z,101583.41
2023-06-17T15:28:42.790Z,101579.94
2023-06-17T15:30:50.728Z,101571.41
2023-06-17T15:32:56.384Z,101569.91
2023-06-17T15:35:02.924Z,101560.13
2023-06-17T15:37:08.323Z,101562.28
2023-06-17T15:39:23.201Z,101565.78
2023-06-17T15:41:28.982Z,101559.84
2023-06-17T15:43:35.179Z,101562.75
2023-06-17T15:45:40.287Z,101560.63
2023-06-17T15:47:48.026Z,101567.41
2023-06-17T15:49:53.625Z,101554.44
2023-06-17T15:52:01.080Z,101556.41
2023-06-17T15:54:06.463Z,101560.34
2023-06-17T15:56:11.782Z,101552.75
2023-06-17T15:58:17.228Z,101554.00
2023-06-17T16:00:22.869Z,101549.13
2023-06-17T16:02:30.204Z,101556.72
2023-06-17T16:04:39.389Z,101547.38
2023-06-17T16:06:44.872Z,101550.59
2023-06-17T16:08:51.660Z,101550.31
2023-06-17T16:10:57.575Z,101543.31
2023-06-17T16:13:03.872Z,101540.25
2023-06-17T16:15:12.090Z,101542.09
2023-06-17T16:17:17.787Z,101541.81
2023-06-17T16:19:23.315Z,101544.53
2023-06-17T16:21:30.954Z,101541.66
2023-06-17T16:23:36.129Z,101545.22
2023-06-17T16:25:54.227Z,101548.75
2023-06-17T16:28:00.313Z,101545.22
2023-06-17T16:30:05.896Z,101544.19
2023-06-17T16:32:11.775Z,101546.03
2023-06-17T16:34:19.482Z,101535.03
2023-06-17T16:36:25.392Z,101545.38
2023-06-17T16:38:34.745Z,101533.84
2023-06-17T16:40:40.320Z,101533.84
2023-06-17T16:42:45.354Z,101524.19
2023-06-17T16:44:50.610Z,101523.47
2023-06-17T16:46:59.220Z,101521.50
2023-06-17T16:49:04.685Z,101524.56
2023-06-17T16:51:09.945Z,101529.34
2023-06-17T16:53:18.074Z,101519.97
2023-06-17T16:55:26.158Z,101528.84
2023-06-17T16:57:31.261Z,101523.78
2023-06-17T16:59:36.872Z,101522.41
2023-06-17T17:01:42.819Z,101519.06
2023-06-17T17:03:48.044Z,101520.41
2023-06-17T17:05:53.280Z,101513.44
2023-06-17T17:07:59.009Z,101506.38
2023-06-17T17:10:05.098Z,101520.88
2023-06-17T17:12:13.135Z,101509.00
2023-06-17T17:14:18.464Z,101505.91
2023-06-17T17:16:23.542Z,101507.81
2023-06-17T17:18:31.717Z,101503.75
2023-06-17T17:20:37.012Z,101503.56
2023-06-17T17:22:46.514Z,101501.19
2023-06-17T17:24:52.081Z,101498.84
2023-06-17T17:26:57.580Z,101502.59
2023-06-17T17:29:07.112Z,101506.81
2023-06-17T17:31:12.313Z,101508.53
2023-06-17T17:33:24.190Z,101506.84
2023-06-17T17:35:29.934Z,101510.75
2023-06-17T17:37:35.385Z,101507.59
2023-06-17T17:39:40.490Z,101504.38
2023-06-17T17:41:45.525Z,101500.44
2023-06-17T17:43:50.667Z,101503.34
2023-06-17T17:45:59.012Z,101511.47
2023-06-17T17:48:05.512Z,101510.31
2023-06-17T17:50:11.710Z,101507.88
2023-06-17T17:52:16.935Z,101505.22
2023-06-17T17:54:22.095Z,101500.06
2023-06-17T17:56:29.598Z,101510.25
2023-06-17T17:58:35.310Z,101510.13
2023-06-17T18:00:40.553Z,101506.28
2023-06-17T18:02:51.546Z,101503.47
2023-06-17T18:04:56.652Z,101507.38
2023-06-17T18:07:05.396Z,101511.09
2023-06-17T18:09:11.005Z,101506.97
2023-06-17T18:11:16.414Z,101514.31
2023-06-17T18:13:22.096Z,101509.44
2023-06-17T18:15:27.166Z,101508.84
2023-06-17T18:17:35.395Z,101503.34
2023-06-17T18:19:44.781Z,101502.50
2023-06-17T18:21:49.834Z,101503.66
2023-06-17T18:23:55.373Z,101506.84
2023-06-17T18:26:00.510Z,101503.19
2023-06-17T18:28:07.318Z,101505.25
2023-06-17T18:30:13.853Z,101504.31
2023-06-17T18:32:18.964Z,101514.00
2023-06-17T18:34:26.697Z,101512.06
2023-06-17T18:36:34.517Z,101510.41
2023-06-17T18:38:40.244Z,101511.28
2023-06-17T18:40:47.507Z,101507.03
2023-06-17T18:42:52.738Z,101515.88
2023-06-17T18:44:58.003Z,101509.06
2023-06-17T18:47:05.902Z,101509.22
2023-06-17T18:49:13.218Z,101503.00
2023-06-17T18:51:21.858Z,101500.03
2023-06-17T18:53:29.896Z,101501.31
2023-06-17T18:55:35.627Z,101501.47
2023-06-17T18:57:41.164Z,101503.47
2023-06-17T18:59:46.186Z,101496.69
2023-06-17T19:01:51.295Z,101503.78
2023-06-17T19:03:58.304Z,101497.81
2023-06-17T19:06:03.436Z,101500.91
2023-06-17T19:08:09.819Z,101505.00
2023-06-17T19:10:17.903Z,101498.59
2023-06-17T19:12:23.302Z,101501.16
2023-06-17T19:14:31.774Z,101508.66
2023-06-17T19:16:37.208Z,101508.34
2023-06-17T19:18:42.773Z,101513.56
2023-06-17T19:20:47.992Z,101501.13
2023-06-17T19:22:53.112Z,101507.47
2023-06-17T19:24:58.754Z,101508.75
2023-06-17T19:27:07.569Z,101510.16
2023-06-17T19:29:12.651Z,101513.53
2023-06-17T19:31:18.196Z,101518.88
2023-06-17T19:33:26.829Z,101512.44
2023-06-17T19:35:35.511Z,101510.03
2023-06-17T19:37:41.218Z,101516.00
2023-06-17T19:39:47.103Z,101519.38
2023-06-17T19:41:52.343Z,101528.00
2023-06-17T19:44:00.207Z,101524.00
2023-06-17T19:46:09.296Z,101531.34
2023-06-17T19:48:14.768Z,101522.84
2023-06-17T19:50:21.945Z,101528.94
2023-06-17T19:52:29.798Z,101531.63
2023-06-17T19:54:35.742Z,101527.50
2023-06-17T19:56:41.009Z,101527.97
2023-06-17T19:58:46.356Z,101530.66
2023-06-17T20:00:56.351Z,101527.94
2023-06-17T20:03:05.650Z,101528.88
2023-06-17T20:05:12.787Z,101529.34
2023-06-17T20:07:18.157Z,101530.91
2023-06-17T20:09:23.450Z,101534.09
2023-06-17T20:11:29.732Z,101529.66
2023-06-17T20:13:35.491Z,101528.69
2023-06-17T20:15:41.665Z,101533.38
2023-06-17T20:17:49.700Z,101537.59
2023-06-17T20:19:56.742Z,101534.91
2023-06-17T20:22:03.913Z,101533.94
2023-06-17T20:24:10.827Z,101540.69
2023-06-17T20:26:17.957Z,101541.19
2023-06-17T20:28:23.008Z,101546.31
2023-06-17T20:30:29.068Z,101544.28
2023-06-17T20:32:34.253Z,101542.28
2023-06-17T20:34:43.770Z,101541.13
2023-06-17T20:36:49.160Z,101539.41
2023-06-17T20:38:56.815Z,101539.34
2023-06-17T20:41:05.638Z,101538.63
2023-06-17T20:43:11.429Z,101538.16
2023-06-17T20:45:17.138Z,101536.47
2023-06-17T20:47:22.681Z,101544.25
2023-06-17T20:49:27.821Z,101542.19
2023-06-17T20:51:38.051Z,101540.41
2023-06-17T20:53:43.079Z,101538.22
2023-06-17T20:55:48.322Z,101536.88
2023-06-17T20:57:53.635Z,101541.41
2023-06-17T21:00:02.120Z,101539.31
2023-06-17T21:02:08.201Z,101534.69
2023-06-17T21:04:13.683Z,101529.44
2023-06-17T21:06:18.934Z,101532.38
2023-06-17T21:08:26.593Z,101531.78
2023-06-17T21:10:33.931Z,101527.38
2023-06-17T21:12:40.621Z,101526.69
2023-06-17T21:14:46.183Z,101527.53
2023-06-17T21:16:52.563Z,101530.56
2023-06-17T21:19:00.679Z,101533.38
2023-06-17T21:21:06.536Z,101535.47
2023-06-17T21:23:11.826Z,101538.28
2023-06-17T21:25:22.129Z,101534.97
2023-06-17T21:27:30.200Z,101526.09
2023-06-17T21:29:35.750Z,101528.16
2023-06-17T21:31:41.002Z,101534.38
2023-06-17T21:33:47.367Z,101538.00
2023-06-17T21:35:52.705Z,101535.84
2023-06-17T21:38:01.648Z,101542.28
2023-06-17T21:40:07.657Z,101533.19
2023-06-17T21:42:15.695Z,101533.44
2023-06-17T21:44:24.713Z,101530.38
2023-06-17T21:46:30.584Z,101526.00
2023-06-17T21:48:37.430Z,101524.41
2023-06-17T21:50:44.418Z,101529.78
2023-06-17T21:52:52.607Z,101531.97
2023-06-17T21:54:59.399Z,101524.63
2023-06-17T21:57:05.263Z,101526.69
2023-06-17T21:59:13.449Z,101525.69
2023-06-17T22:01:19.003Z,101519.63
2023-06-17T22:03:26.120Z,101523.50
2023-06-17T22:05:31.368Z,101524.84
2023-06-17T22:07:36.636Z,101523.50
2023-06-17T22:09:41.963Z,101522.53
2023-06-17T22:11:47.624Z,101524.59
2023-06-17T22:13:52.968Z,101523.13
2023-06-17T22:16:01.600Z,101520.78
2023-06-17T22:18:06.906Z,101515.09
2023-06-17T22:20:13.820Z,101516.06
2023-06-17T22:22:19.057Z,101520.69
2023-06-17T22:24:24.984Z,101509.84
2023-06-17T22:26:30.499Z,101510.81
2023-06-17T22:28:36.874Z,101513.09
2023-06-17T22:30:42.721Z,101516.25
2023-06-17T22:32:50.560Z,101509.22
2023-06-17T22:34:56.198Z,101514.06
2023-06-17T22:37:03.459Z,101516.97
2023-06-17T22:39:08.611Z,101507.38
2023-06-17T22:41:13.616Z,101509.63
2023-06-17T22:43:21.122Z,101510.84
2023-06-17T22:45:26.577Z,101514.91
2023-06-17T22:47:34.168Z,101514.16
2023-06-17T22:49:43.080Z,101505.66
2023-06-17T22:51:48.132Z,101514.88
2023-06-17T22:53:53.435Z,101515.09
2023-06-17T22:56:01.397Z,101510.09
2023-06-17T22:58:07.080Z,101521.97
2023-06-17T23:00:16.352Z,101520.53
2023-06-17T23:02:21.682Z,101515.28
2023-06-17T23:04:26.786Z,101516.44
2023-06-17T23:06:34.490Z,101518.41
2023-06-17T23:08:40.287Z,101515.00
2023-06-17T23:10:45.294Z,101517.44
2023-06-17T23:12:50.610Z,101513.91
2023-06-17T23:20:30.740Z,101514.84
2023-06-17T23:22:38.615Z,101516.69
2023-06-17T23:24:46.129Z,101505.16
2023-06-17T23:26:51.922Z,101512.53
2023-06-17T23:28:59.663Z,101510.72
2023-06-17T23:31:05.100Z,101505.84
2023-06-17T23:33:12.292Z,101512.97
2023-06-17T23:35:19.871Z,101502.44
2023-06-17T23:37:26.800Z,101505.94
2023-06-17T23:39:34.503Z,101498.91
2023-06-17T23:41:39.921Z,101493.88
2023-06-17T23:43:45.639Z,101500.09
2023-06-17T23:45:56.195Z,101498.25
2023-06-17T23:48:01.535Z,101498.59
2023-06-17T23:50:07.112Z,101494.13
2023-06-17T23:52:12.871Z,101506.13
2023-06-17T23:54:19.020Z,101498.28
2023-06-17T23:56:27.757Z,101497.78
2023-06-17T23:58:33.466Z,101500.69
